Terminal Aerodrome Forecast
Issued by NWS Bismarck, ND

Home | Current Version | Previous Version | Text Only | Print | Product List | Glossary On
Versions: 1 2 3 4 5 6 7 8 9 10 11 12 13 14 15 16 17 18 19 20 21 22
391
FTUS43 KBIS 280131 AAD
TAFBIS
TAF AMD
KBIS 280131Z 2802/2824 27035G55KT 1/2SM +TSRAGS BKN010 OVC025CB
     FM280245 29015G21KT P6SM FEW040 BKN100
     FM280500 31010KT P6SM BKN150
     FM281200 32011G22KT P6SM FEW025 SCT200=

USA.gov is the U.S. government's official web portal to all federal, state and local government web resources and services.